Historyczne dane pomiarowe

Dodano dane terminowe – wersja testowa.

Dane z okresu 1951-2019

Wersja bazy: 1.34 [2019-03-16, lista zmian], aktualizacja planowana na 2019-04-15

Dane meteo z obszaru Polski uzyskane na podstawie danych udostępnionych przez Instytut Meteorologii i Gospodarki Wodnej – Państwowy Instytut Badawczy.

 

Wybierz Datę:    

       

TemperaturaWilgotnośćWiatrCiśnienieOpadyŚniegCzas trwania zjawisk
 Stacja t tx tn tng RH VA  wxwx mslp ppp RRR   cm mm wxwxwxwxwxwxwx
1966-03-18 2.0 6.5 0.3 3.8 85.8- 8.0 6.0---- 0.0------------
1966-03-19 -0.2 3.1 -1.0 -1.4 66.5- 2.7 7.0---- 0.0------------
1966-03-20 3.9 5.6 -0.7 -2.1 56.3- 6.7 7.7---- 0.0------------
1966-03-21 4.8 6.7 3.6 2.8 78.3- 5.7 7.7---- 0.9------------
1966-03-22 4.1 6.9 2.1 1.5 72.0- 5.3 10.0---- 3.0------------
1966-03-23 5.4 8.6 2.9 1.6 72.8- 6.7 4.3---- 0.7------------
1966-03-24 3.3 6.5 1.0 1.3 79.8- 7.0 9.3---- 2.8------------
1966-03-25 1.3 5.3 0.3 -0.1 76.8- 5.0 5.7---- 6.2------------
1966-03-26 0.9 3.8 -1.6 -2.4 80.5- 3.3 6.0---- 3.0-- 3---------
1966-03-27 3.0 5.9 -1.0 -2.1 81.0- 6.7 14.3---- 4.3-- 1---------
1966-03-28 4.6 8.9 2.8 1.4 77.3- 6.7 7.7---- 0.9------------
1966-03-29 2.7 5.7 1.4 0.4 77.3- 7.0 5.7---- 0.4------------
1966-03-30 2.9 7.5 1.4 0.5 74.0- 5.7 5.0---- 0.0------------
1966-03-31 4.6 6.7 1.4 0.0 70.5- 7.0 8.0---- 0.0------------
1966-04-01 4.7 10.6 2.6 -0.6 82.3- 4.0 2.3---- 0.0------------
1966-04-02 4.8 8.8 2.0 -0.7 81.5- 3.0 2.0---- 0.0------------
1966-04-03 4.6 7.2 2.6 3.2 85.5- 7.7 2.7---- 0.0------------
1966-04-04 5.2 9.6 2.6 -1.8 83.3- 6.0 0.0---- 0.0------------
1966-04-05 7.0 10.6 2.0 0.1 80.0- 4.7 4.3---- 0.0------------
1966-04-06 3.5 9.0 2.5 2.8 85.5- 5.0 2.7---- 0.0------------
1966-04-07 3.1 4.0 2.5 1.4 89.5- 8.0 6.0---- 6.0------------
1966-04-08 1.6 3.6 0.2 2.5 93.0- 8.0 5.3---- 0.0------------
1966-04-09 3.4 4.8 0.2 0.3 91.8- 8.0 4.7---- 1.1------------
1966-04-10 3.0 5.6 2.1 3.3 93.8- 8.0 4.7---- 0.9------------
1966-04-11 2.1 3.4 1.6 2.0 92.0- 8.0 8.7---- 3.8------------
1966-04-12 0.8 2.9 0.2 0.3 84.5- 8.0 8.0---- 0.0------------
1966-04-13 -0.1 0.9 -1.1 -0.8 80.0- 8.0 6.3---- 0.0------------
1966-04-14 0.8 4.1 -1.5 -1.2 83.3- 7.3 9.7---- 2.6------------
1966-04-15 0.4 2.4 -0.2 -0.4 81.5- 7.7 5.0---- 0.0------------
1966-04-16 0.3 1.2 -0.5 -0.8 78.8- 7.0 5.3---- 0.0------------
214.8 ms

 

Źródłem pochodzenia danych jest Instytut Meteorologii i Gospodarki Wodnej – Państwowy Instytut Badawczy. Dane Instytutu Meteorologii i Gospodarki Wodnej – Państwowego Instytutu Badawczego zostały przetworzone.

Dane źródłowe można odnaleźć na stronie https://dane.imgw.pl